• Join FlightAware (Why Join?)
  • Login
  • US Flag 
03:19AM EST


 

Airport Tracker/Info


-or-


 

Live Flight TrackerFlight Track Log ✈ SWA876 ✈ 13-Apr-2013 ✈ KLAS - KCMH

Flight Track Log - Related Links

Times and Time Zones

All times are in EDT time to prevent confusion due to time zone crossing. See the SWA876 flight status page for this flight to view local times or setup timezone preferences in your user account.

Time Position Orientation Groundspeed Altitude Reporting Facility
EDT Latitude Longitude Course Direction KTS MPH feet Rate Location/Type
07:50PM 36.0756 -115.1658 274° West 193 222 3,200  Level Los Angeles Center
07:50PM 36.0769 -115.1919 274° West 172 198 3,800 2,280 Climbing Los Angeles Center
07:51PM 36.0808 -115.2703 274° West 228 262 6,500 2,280 Climbing Los Angeles Center
07:52PM 36.1086 -115.2897 331° Northwest 249 287 7,400 2,340 Climbing Los Angeles Center
07:52PM 36.1506 -115.2822 North 301 346 8,900 3,060 Climbing Los Angeles Center
07:53PM 36.1772 -115.2461 48° Northeast 294 338 10,600 2,160 Climbing Los Angeles Center
07:53PM 36.1903 -115.1864 75° East 334 384 11,100 1,440 Climbing Los Angeles Center
07:54PM 36.1961 -115.1297 83° East 347 399 12,100 2,220 Climbing Los Angeles Center
07:55PM 36.1972 -114.9972 89° East 383 441 14,700 2,700 Climbing Los Angeles Center
07:56PM 36.1992 -114.8317 89° East 399 459 17,800 2,520 Climbing Los Angeles Center
07:57PM 36.2000 -114.6864 90° East 415 478 20,000 2,100 Climbing Los Angeles Center
07:58PM 36.1975 -114.5347 91° East 433 498 22,200 1,920 Climbing Los Angeles Center
07:59PM 36.1944 -114.3767 91° East 451 519 24,000 1,680 Climbing Los Angeles Center
08:00PM 36.2150 -114.2206 81° East 466 536 25,700 1,500 Climbing Los Angeles Center
08:01PM 36.2969 -114.1114 47° Northeast 436 502 27,200 1,320 Climbing Los Angeles Center
08:02PM 36.3842 -114.0022 45° Northeast 442 509 28,500 1,260 Climbing Los Angeles Center
08:03PM 36.4378 -113.8125 71° East 491 565 29,800 1,440 Climbing Los Angeles Center
08:04PM 36.5028 -113.6744 60° Northeast 467 537 31,500 1,500 Climbing Los Angeles Center
08:05PM 36.5925 -113.5767 41° Northeast 449 517 32,900 1,200 Climbing Los Angeles Center
08:06PM 36.6844 -113.4722 42° Northeast 447 514 34,000 960 Climbing Los Angeles Center
08:07PM 36.7761 -113.3661 43° Northeast 449 517 34,900 540 Climbing Los Angeles Center
08:08PM 36.8686 -113.2597 43° Northeast 451 519 35,200 600 Climbing Los Angeles Center
08:09PM 36.9825 -113.1294 42° Northeast 460 529 36,200 840 Climbing Los Angeles Center
08:10PM 37.0772 -113.0200 43° Northeast 464 534 37,000 420 Climbing Los Angeles Center
08:11PM 37.1525 -112.9331 43° Northeast 465 535 37,000  Level Salt Lake Center
08:12PM 37.2469 -112.8231 43° Northeast 466 536 37,000  Level Salt Lake Center
08:13PM 37.3419 -112.7125 43° Northeast 469 540 37,000  Level Salt Lake Center
08:14PM 37.4525 -112.5819 43° Northeast 465 535 37,000  Level Salt Lake Center
08:15PM 37.5456 -112.4728 43° Northeast 464 534 37,000  Level Salt Lake Center
08:16PM 37.6392 -112.3619 43° Northeast 465 535 37,000  Level Salt Lake Center
08:17PM 37.7275 -112.2397 48° Northeast 474 545 37,000  Level Salt Lake Center
08:18PM 37.8053 -112.1019 54° Northeast 483 556 37,000  Level Salt Lake Center
08:19PM 37.8833 -111.9694 53° Northeast 473 544 37,000  Level Salt Lake Center
08:20PM 37.9617 -111.8317 54° Northeast 480 552 37,000  Level Salt Lake Center
08:21PM 38.0392 -111.6944 54° Northeast 482 555 37,000  Level Salt Lake Center
08:22PM 38.1156 -111.5631 54° Northeast 468 539 37,000  Level Salt Lake Center
08:23PM 38.1911 -111.4278 55° Northeast 470 541 37,000  Level Salt Lake Center
08:24PM 38.2839 -111.2681 53° Northeast 469 540 37,000  Level Salt Lake Center
08:25PM 38.3603 -111.1322 54° Northeast 471 542 37,000  Level Salt Lake Center
08:26PM 38.4386 -110.9906 55° Northeast 487 560 37,000  Level Salt Lake Center
08:27PM 38.5217 -110.8417 54° Northeast 486 559 37,000  Level Salt Lake Center
08:28PM 38.5958 -110.7067 55° Northeast 485 558 37,000  Level Salt Lake Center
08:29PM 38.6778 -110.5517 56° Northeast 470 541 37,000  Level Denver Center
08:30PM 38.7494 -110.4228 54° Northeast 466 536 37,000  Level Denver Center
08:31PM 38.8211 -110.2931 55° Northeast 466 536 37,000  Level Denver Center
08:32PM 38.8947 -110.1642 54° Northeast 468 539 37,000  Level Salt Lake Center
08:33PM 38.9778 -110.0092 55° Northeast 470 541 37,000  Level Salt Lake Center
08:34PM 39.0500 -109.8750 55° Northeast 476 548 37,000  Level Salt Lake Center
08:35PM 39.1222 -109.7400 55° Northeast 478 550 37,000  Level Salt Lake Center
08:36PM 39.1333 -109.7150 60° Northeast 481 554 37,000  Level Denver Center
08:36PM 39.2067 -109.5831 54° Northeast 478 550 37,000  Level Salt Lake Center
08:37PM 39.2769 -109.4492 56° Northeast 472 543 37,000  Level Salt Lake Center
08:38PM 39.3619 -109.2892 55° Northeast 482 555 37,000  Level Salt Lake Center
08:39PM 39.3731 -109.2636 61° Northeast 484 557 37,000  Level Denver Center
08:40PM 39.4581 -109.1033 55° Northeast 485 558 37,000  Level Denver Center
08:41PM 39.5311 -108.9647 56° Northeast 485 558 37,000  Level Denver Center
08:42PM 39.5914 -108.8486 56° Northeast 487 560 37,000  Level Denver Center
08:43PM 39.6806 -108.6794 56° Northeast 476 548 37,000  Level Denver Center
08:44PM 39.7636 -108.5194 56° Northeast 478 550 37,000  Level Denver Center
08:45PM 39.8364 -108.3783 56° Northeast 492 566 37,000  Level Denver Center
08:46PM 39.9103 -108.2378 56° Northeast 490 564 37,000  Level Denver Center
08:47PM 40.0017 -108.0542 57° Northeast 476 548 37,000  Level Denver Center
08:48PM 40.0736 -107.9139 56° Northeast 484 557 37,000  Level Denver Center
08:49PM 40.1675 -107.7567 52° Northeast 489 563 37,000  Level Denver Center
08:50PM 40.2475 -107.6206 52° Northeast 492 566 37,000  Level Denver Center
08:51PM 40.3417 -107.4636 52° Northeast 491 565 37,000  Level Denver Center
08:52PM 40.4200 -107.3289 53° Northeast 487 560 37,000  Level Denver Center
08:53PM 40.4944 -107.2006 53° Northeast 485 558 37,000  Level Denver Center
08:54PM 40.5786 -107.0581 52° Northeast 489 563 37,000  Level Denver Center
08:55PM 40.6600 -106.9172 53° Northeast 484 557 37,000  Level Denver Center
08:56PM 40.7556 -106.7497 53° Northeast 480 552 37,000  Level Denver Center
08:57PM 40.8339 -106.6150 52° Northeast 483 556 37,000  Level Denver Center
08:58PM 40.9114 -106.4800 53° Northeast 482 555 37,000  Level Denver Center
09:00PM 41.0017 -106.3203 53° Northeast 485 558 37,000  Level Denver Center
09:01PM 41.1028 -106.1411 53° Northeast 491 565 37,000  Level Denver Center
09:02PM 41.1822 -105.9986 53° Northeast 484 557 37,000  Level Denver Center
09:03PM 41.2592 -105.8600 54° Northeast 486 559 37,000  Level Denver Center
09:04PM 41.3442 -105.6928 56° Northeast 488 562 37,000  Level Denver Center
09:05PM 41.3889 -105.5261 70° East 499 574 37,000  Level Denver Center
09:06PM 41.4311 -105.3614 71° East 494 568 37,000  Level Denver Center
09:07PM 41.4786 -105.1694 72° East 491 565 37,000  Level Denver Center
09:08PM 41.5217 -105.0044 71° East 492 566 37,000  Level Denver Center
09:09PM 41.5694 -104.8131 71° East 490 564 37,000  Level Denver Center
09:10PM 41.6103 -104.6467 72° East 492 566 37,000  Level Denver Center
09:11PM 41.6517 -104.4819 71° East 491 565 37,000  Level Denver Center
09:12PM 41.6989 -104.2906 72° East 488 562 37,000  Level Denver Center
09:13PM 41.7394 -104.1250 72° East 489 563 37,000  Level Denver Center
09:14PM 41.7869 -103.9272 72° East 497 572 37,000  Level Denver Center
09:15PM 41.8272 -103.7611 72° East 495 570 37,000  Level Denver Center
09:16PM 41.8672 -103.5897 73° East 501 577 37,000  Level Denver Center
09:17PM 41.8936 -103.3867 80° East 505 581 37,000  Level Denver Center
09:18PM 41.8919 -103.2106 91° East 496 571 37,000  Level Denver Center
09:19PM 41.8911 -103.0025 90° East 497 572 37,000  Level Denver Center
09:20PM 41.8894 -102.8256 91° East 498 573 37,000  Level Denver Center
09:21PM 41.8869 -102.6472 91° East 500 575 37,000  Level Denver Center
09:22PM 41.8844 -102.4386 91° East 502 578 37,000  Level Denver Center
09:23PM 41.8822 -102.2600 91° East 502 578 37,000  Level Denver Center
09:24PM 41.8792 -102.0761 91° East 505 581 37,000  Level Denver Center
09:25PM 41.8764 -101.8678 91° East 499 574 37,000  Level Denver Center
09:26PM 41.8736 -101.6867 91° East 504 580 37,000  Level Denver Center
09:27PM 41.8692 -101.4778 92° East 501 577 37,000  Level Denver Center
09:28PM 41.8647 -101.2997 92° East 500 575 37,000  Level Denver Center
09:29PM 41.8606 -101.1239 92° East 493 567 37,000  Level Denver Center
09:30PM 41.8556 -100.9197 92° East 489 563 37,000  Level Denver Center
09:31PM 41.8514 -100.7433 92° East 493 567 37,000  Level Denver Center
09:32PM 41.8458 -100.5428 92° East 485 558 37,000  Level Denver Center
09:33PM 41.8411 -100.3694 92° East 485 558 37,000  Level Denver Center
09:34PM 41.8353 -100.1989 93° East 480 552 37,000  Level Denver Center
09:35PM 41.8283 -100.0008 93° East 476 548 37,000  Level Denver Center
09:36PM 41.8233 -99.8300 92° East 479 551 37,000  Level Denver Center
09:37PM 41.8158 -99.6517 93° East 481 554 37,000  Level Denver Center
09:38PM 41.8094 -99.4736 93° East 477 549 37,000  Level Denver Center
09:39PM 41.8031 -99.2956 93° East 477 549 37,000  Level Denver Center
09:40PM 41.7967 -99.1531 93° East 476 548 37,000  Level Denver Center
09:41PM 41.7886 -98.9386 93° East 478 550 37,000  Level Denver Center
09:42PM 41.7786 -98.7250 94° East 477 549 37,000  Level Denver Center
09:44PM 41.7708 -98.5444 93° East 479 551 37,000  Level Denver Center
09:45PM 41.7600 -98.3300 94° East 479 551 37,000  Level Minneapolis Center
09:46PM 41.7511 -98.1511 94° East 479 551 37,000  Level Minneapolis Center
09:47PM 41.7433 -97.9781 93° East 479 551 37,000  Level Minneapolis Center
09:48PM 41.7336 -97.8003 94° East 479 551 37,000  Level Minneapolis Center
09:49PM 41.7244 -97.6211 94° East 481 554 37,000  Level Minneapolis Center
09:50PM 41.7142 -97.4431 94° East 481 554 37,000  Level Minneapolis Center
09:51PM 41.7044 -97.2642 94° East 481 554 37,000  Level Minneapolis Center
09:52PM 41.6964 -97.0853 93° East 483 556 37,000  Level Minneapolis Center
09:53PM 41.6981 -96.9050 89° East 483 556 37,000  Level Minneapolis Center
09:54PM 41.6967 -96.7264 91° East 481 554 37,000  Level Minneapolis Center
09:55PM 41.6936 -96.5447 91° East 484 557 37,000  Level Minneapolis Center
09:56PM 41.6914 -96.3633 91° East 485 558 37,000  Level Minneapolis Center
09:57PM 41.6886 -96.1814 91° East 486 559 37,000  Level Minneapolis Center
09:58PM 41.6853 -95.9989 91° East 486 559 37,000  Level Minneapolis Center
09:59PM 41.6814 -95.8167 92° East 485 558 37,000  Level Minneapolis Center
10:00PM 41.6783 -95.6350 91° East 485 558 37,000  Level Minneapolis Center
10:01PM 41.6733 -95.4547 92° East 484 557 37,000  Level Minneapolis Center
10:02PM 41.6700 -95.2711 91° East 486 559 37,000  Level Minneapolis Center
10:03PM 41.6636 -95.0925 93° East 485 558 37,000  Level Minneapolis Center
10:04PM 41.6600 -94.9094 91° East 490 564 37,000  Level Minneapolis Center
10:05PM 41.6542 -94.7272 92° East 492 566 37,000  Level Minneapolis Center
10:06PM 41.6486 -94.5439 92° East 493 567 37,000  Level Minneapolis Center
10:07PM 41.6414 -94.3242 92° East 494 568 37,000  Level Minneapolis Center
10:08PM 41.6358 -94.1597 93° East 493 567 37,000  Level Minneapolis Center
10:09PM 41.6297 -93.9781 93° East 492 566 37,000  Level Minneapolis Center
10:10PM 41.6222 -93.7969 93° East 492 566 37,000  Level Minneapolis Center
10:11PM 41.6153 -93.6133 93° East 495 570 37,000  Level Minneapolis Center
10:12PM 41.6094 -93.4286 92° East 498 573 37,000  Level Minneapolis Center
10:13PM 41.6019 -93.2456 93° East 498 573 37,000  Level Minneapolis Center
10:14PM 41.5944 -93.0639 93° East 495 570 37,000  Level Minneapolis Center
10:15PM 41.5844 -92.8453 93° East 494 568 37,000  Level Minneapolis Center
10:16PM 41.5761 -92.6625 93° East 494 568 37,000  Level Minneapolis Center
10:17PM 41.5717 -92.5544 93° East 493 567 37,000  Level Chicago Center
10:18PM 41.5625 -92.3719 94° East 497 572 37,000  Level Chicago Center
10:19PM 41.5536 -92.1897 94° East 497 572 37,000  Level Chicago Center
10:20PM 41.5442 -92.0094 94° East 495 570 37,000  Level Chicago Center
10:21PM 41.5350 -91.8311 94° East 488 562 37,000  Level Chicago Center
10:22PM 41.5250 -91.6542 94° East 486 559 37,000  Level Chicago Center
10:23PM 41.5147 -91.4761 94° East 485 558 37,000  Level Chicago Center
10:24PM 41.5031 -91.2764 94° East 484 557 37,000  Level Chicago Center
10:25PM 41.4919 -91.0989 95° East 481 554 37,000  Level Chicago Center
10:26PM 41.4811 -90.9206 95° East 482 555 37,000  Level Chicago Center
10:27PM 41.4706 -90.7408 94° East 484 557 37,000  Level Chicago Center
10:28PM 41.4583 -90.5628 95° East 483 556 37,000  Level Chicago Center
10:29PM 41.4469 -90.3836 95° East 484 557 37,000  Level Chicago Center
10:30PM 41.4350 -90.2044 95° East 484 557 37,000  Level Chicago Center
10:31PM 41.4225 -90.0242 95° East 486 559 37,000  Level Chicago Center
10:32PM 41.4089 -89.8453 96° East 484 557 37,000  Level Chicago Center
10:33PM 41.3964 -89.6658 95° East 484 557 37,000  Level Chicago Center
10:34PM 41.3831 -89.4864 96° East 485 558 37,000  Level Chicago Center
10:35PM 41.3692 -89.3064 96° East 487 560 37,000  Level Chicago Center
10:36PM 41.3553 -89.1222 96° East 489 563 37,000  Level Chicago Center
10:37PM 41.3406 -88.9417 96° East 493 567 37,000  Level Chicago Center
10:38PM 41.3253 -88.7594 96° East 497 572 37,000  Level Chicago Center
10:39PM 41.3111 -88.5747 96° East 503 579 37,000  Level Chicago Center
10:40PM 41.2956 -88.3903 96° East 507 583 37,000  Level Chicago Center
10:41PM 41.2775 -88.1703 96° East 507 583 37,000 -240 Level Chicago Center
10:42PM 41.2622 -87.9883 96° East 511 588 36,600 -720 Descending Chicago Center
10:43PM 41.2447 -87.8083 97° East 503 579 35,600 -960 Descending Chicago Center
10:44PM 41.2297 -87.6281 96° East 498 573 34,700 -960 Descending Chicago Center
10:45PM 41.2131 -87.4447 97° East 502 578 33,700 -900 Descending Chicago Center
10:46PM 41.1964 -87.2575 97° East 514 592 33,000 -360 Descending Chicago Center
10:47PM 41.1794 -87.0678 97° East 522 601 33,000  Level Chicago Center
10:48PM 41.1592 -86.8783 98° East 522 601 33,000  Level Chicago Center
10:49PM 41.1383 -86.6722 98° East 519 597 33,000  Level Chicago Center
10:50PM 41.1183 -86.4828 98° East 521 600 33,000  Level Chicago Center
10:51PM 41.0992 -86.2953 98° East 518 596 33,000 -60 Level Chicago Center
10:52PM 41.0789 -86.1075 98° East 519 597 32,900 -600 Descending Chicago Center
10:53PM 41.0589 -85.9192 98° East 520 598 31,900 -1,020 Descending Chicago Center
10:54PM 41.0389 -85.7269 98° East 529 609 30,900 -1,020 Descending Chicago Center
10:55PM 41.0175 -85.5383 98° East 524 603 29,900 -960 Descending Chicago Center
10:56PM 40.9964 -85.3525 99° East 519 597 29,000 -480 Descending Chicago Center
10:57PM 40.9711 -85.1681 100° East 517 595 29,000  Level Chicago Center
10:58PM 40.9175 -84.9944 112° Southeast 514 592 29,000  Level Chicago Center
10:59PM 40.8644 -84.8206 112° Southeast 513 590 29,000  Level Chicago Center
11:00PM 40.8103 -84.6467 112° Southeast 515 593 29,000  Level Chicago Center
11:01PM 40.7431 -84.4372 113° Southeast 518 596 29,000 -720 Level Chicago Center
11:02PM 40.6917 -84.2756 113° Southeast 515 593 27,600 -2,760 Descending Indianapolis Center
11:03PM 40.6139 -84.1106 122° Southeast 526 605 23,500 -4,200 Descending Indianapolis Center
11:04PM 40.5844 -84.0481 122° Southeast 534 615 22,200 -3,540 Descending Indianapolis Center
11:04PM 40.5608 -83.9983 122° Southeast 533 613 21,400 -2,400 Descending Indianapolis Center
11:04PM 40.5367 -83.9414 119° Southeast 532 612 20,500 -2,700 Descending Indianapolis Center
11:05PM 40.4839 -83.8264 121° Southeast 510 587 18,700 -2,640 Descending Indianapolis Center
11:05PM 40.4639 -83.7794 119° Southeast 510 587 17,900 -2,400 Descending Indianapolis Center
11:06PM 40.4136 -83.6722 122° Southeast 488 562 16,300 -2,400 Descending Indianapolis Center
11:06PM 40.3936 -83.6267 120° Southeast 487 560 15,500 -2,640 Descending Indianapolis Center
11:07PM 40.3447 -83.5239 122° Southeast 467 537 13,700 -2,640 Descending Indianapolis Center
11:07PM 40.3294 -83.4778 113° Southeast 467 537 12,900 -2,460 Descending Indianapolis Center
11:08PM 40.2950 -83.3728 113° Southeast 449 517 11,200 -1,920 Descending Indianapolis Center
11:08PM 40.2814 -83.3261 111° Southeast 448 516 11,000 -1,020 Descending Indianapolis Center
11:09PM 40.2503 -83.2336 114° Southeast 395 455 10,200 -1,140 Descending Indianapolis Center
11:09PM 40.2378 -83.1894 110° East 404 465 9,900 -240 Descending Indianapolis Center
11:10PM 40.2147 -83.1119 111° Southeast 342 394 10,000 -240 Climbing Indianapolis Center
11:10PM 40.2028 -83.0736 112° Southeast 346 398 9,700 -1,200 Descending Indianapolis Center
11:11PM 40.1825 -83.0044 111° Southeast 317 365 8,800 -1,320 Descending Indianapolis Center
11:11PM 40.1717 -82.9642 109° East 320 368 8,400 -1,200 Descending Indianapolis Center
11:12PM 40.1519 -82.9000 112° Southeast 313 360 7,600 -1,200 Descending Indianapolis Center
11:12PM 40.1406 -82.8583 110° East 311 358 7,200 -480 Descending Indianapolis Center
11:13PM 40.1244 -82.8069 112° Southeast 284 327 7,200 -120 Level Indianapolis Center
11:13PM 40.1125 -82.7639 110° East 287 330 7,100 -300 Descending Indianapolis Center
11:14PM 40.1008 -82.7225 110° East 229 264 6,900 -840 Descending Indianapolis Center
11:14PM 40.0897 -82.6856 111° Southeast 241 277 6,300 -1,020 Descending Indianapolis Center
11:15PM 40.0658 -82.6831 175° South 174 200 5,900 -900 Descending Indianapolis Center
11:15PM 40.0486 -82.6958 210° Southwest 180 207 5,400 -1,320 Descending Indianapolis Center
11:16PM 40.0303 -82.7147 218° Southwest 149 171 4,600 -1,680 Descending Indianapolis Center
11:16PM 40.0097 -82.7325 214° Southwest 169 194 3,700 -1,920 Descending Indianapolis Center
11:17PM 39.9875 -82.7589 222° Southwest 183 211 2,700 -1,440 Descending Indianapolis Center
11:17PM 39.9869 -82.7797 268° West 166 191 2,300 -840 Descending Indianapolis Center
11:18PM 39.9903 -82.8108 278° West 138 159 1,900 -840 Descending Indianapolis Center
11:18PM 39.9911 -82.8317 273° West 149 171 1,500 -840 Descending Indianapolis Center
11:19PM 39.9933 -82.8603 276° West 136 157 1,100 -540 Descending Indianapolis Center
11:19PM 39.9933 -82.8847 270° West 145 167 1,000 -240 Descending Indianapolis Center